Terminal Aerodrome Forecast
Issued by NWS

Home | Current Version | Previous Version | Text Only | Print | Product List | Glossary On
Versions: 1 2 3 4 5 6 7 8 9 10 11 12 13 14 15 16 17 18 19 20
000
FTUS44 KCRP 280100 AAA
TAFALI
TAF AMD
KALI 280146Z 2802/2824 36012G20KT P6SM -RA OVC020
     FM280400 36010KT P6SM -RA OVC012
      TEMPO 2812/2816 3SM SHRA OVC010
     FM281600 35014G20KT P6SM OVC025
     FM282100 34012KT P6SM SCT030 BKN040=

USA.gov is the U.S. government's official web portal to all federal, state and local government web resources and services.